sensor_id;sensor_type;location;lat;lon;timestamp;P1;durP1;ratioP1;P2;durP2;ratioP2
1545;SDS011;766;51.502;9.752;2023-07-28T00:01:16;6.00;;;3.03;;
1545;SDS011;766;51.502;9.752;2023-07-28T00:03:44;7.70;;;3.70;;
1545;SDS011;766;51.502;9.752;2023-07-28T00:06:12;8.65;;;3.72;;
1545;SDS011;766;51.502;9.752;2023-07-28T00:08:41;8.18;;;3.00;;
1545;SDS011;766;51.502;9.752;2023-07-28T00:11:09;4.47;;;3.22;;
1545;SDS011;766;51.502;9.752;2023-07-28T00:13:40;4.60;;;3.05;;
1545;SDS011;766;51.502;9.752;2023-07-28T00:16:09;4.55;;;2.75;;
1545;SDS011;766;51.502;9.752;2023-07-28T00:18:38;9.52;;;2.40;;
1545;SDS011;766;51.502;9.752;2023-07-28T00:21:06;4.93;;;2.47;;
1545;SDS011;766;51.502;9.752;2023-07-28T00:23:34;2.63;;;2.25;;
1545;SDS011;766;51.502;9.752;2023-07-28T00:26:03;6.70;;;2.78;;
1545;SDS011;766;51.502;9.752;2023-07-28T00:28:31;6.63;;;3.03;;
1545;SDS011;766;51.502;9.752;2023-07-28T00:31:02;8.35;;;2.58;;
1545;SDS011;766;51.502;9.752;2023-07-28T00:33:30;7.93;;;2.85;;
1545;SDS011;766;51.502;9.752;2023-07-28T00:35:58;5.82;;;2.70;;
1545;SDS011;766;51.502;9.752;2023-07-28T00:38:27;6.85;;;2.95;;
1545;SDS011;766;51.502;9.752;2023-07-28T00:40:56;5.35;;;2.97;;
1545;SDS011;766;51.502;9.752;2023-07-28T00:43:25;5.65;;;3.00;;
1545;SDS011;766;51.502;9.752;2023-07-28T00:45:53;4.70;;;2.72;;
1545;SDS011;766;51.502;9.752;2023-07-28T00:48:25;3.97;;;3.00;;
1545;SDS011;766;51.502;9.752;2023-07-28T00:51:08;4.65;;;2.95;;
1545;SDS011;766;51.502;9.752;2023-07-28T00:53:58;5.53;;;2.67;;
1545;SDS011;766;51.502;9.752;2023-07-28T00:56:40;3.97;;;3.00;;
1545;SDS011;766;51.502;9.752;2023-07-28T00:59:09;4.95;;;3.00;;
1545;SDS011;766;51.502;9.752;2023-07-28T01:01:37;3.95;;;2.90;;
1545;SDS011;766;51.502;9.752;2023-07-28T01:04:07;2.47;;;2.28;;
1545;SDS011;766;51.502;9.752;2023-07-28T01:06:37;7.60;;;2.65;;
1545;SDS011;766;51.502;9.752;2023-07-28T01:09:14;5.82;;;2.42;;
1545;SDS011;766;51.502;9.752;2023-07-28T01:11:53;5.05;;;2.70;;
1545;SDS011;766;51.502;9.752;2023-07-28T01:14:22;3.58;;;2.80;;
1545;SDS011;766;51.502;9.752;2023-07-28T01:16:51;5.30;;;2.60;;
1545;SDS011;766;51.502;9.752;2023-07-28T01:19:21;6.75;;;2.78;;
1545;SDS011;766;51.502;9.752;2023-07-28T01:21:53;7.22;;;2.90;;
1545;SDS011;766;51.502;9.752;2023-07-28T01:24:36;4.93;;;2.30;;
1545;SDS011;766;51.502;9.752;2023-07-28T01:27:18;3.53;;;2.67;;
1545;SDS011;766;51.502;9.752;2023-07-28T01:29:47;3.47;;;2.45;;
1545;SDS011;766;51.502;9.752;2023-07-28T01:32:16;2.60;;;2.40;;
1545;SDS011;766;51.502;9.752;2023-07-28T01:34:44;3.25;;;2.30;;
1545;SDS011;766;51.502;9.752;2023-07-28T01:37:13;5.07;;;2.45;;
1545;SDS011;766;51.502;9.752;2023-07-28T01:39:41;8.35;;;2.20;;
1545;SDS011;766;51.502;9.752;2023-07-28T01:42:10;6.00;;;2.25;;
1545;SDS011;766;51.502;9.752;2023-07-28T01:44:40;2.95;;;2.08;;
1545;SDS011;766;51.502;9.752;2023-07-28T01:47:09;4.38;;;2.30;;
1545;SDS011;766;51.502;9.752;2023-07-28T01:49:37;2.90;;;2.17;;
1545;SDS011;766;51.502;9.752;2023-07-28T01:52:06;5.20;;;2.40;;
1545;SDS011;766;51.502;9.752;2023-07-28T01:54:34;4.03;;;2.28;;
1545;SDS011;766;51.502;9.752;2023-07-28T01:57:03;2.25;;;2.03;;
1545;SDS011;766;51.502;9.752;2023-07-28T01:59:32;4.60;;;1.90;;
1545;SDS011;766;51.502;9.752;2023-07-28T02:02:02;2.03;;;1.85;;
1545;SDS011;766;51.502;9.752;2023-07-28T02:04:30;2.90;;;2.40;;
1545;SDS011;766;51.502;9.752;2023-07-28T02:06:58;3.15;;;2.10;;
1545;SDS011;766;51.502;9.752;2023-07-28T02:09:27;4.47;;;1.80;;
1545;SDS011;766;51.502;9.752;2023-07-28T02:11:55;2.30;;;1.70;;
1545;SDS011;766;51.502;9.752;2023-07-28T02:14:23;3.78;;;2.08;;
1545;SDS011;766;51.502;9.752;2023-07-28T02:16:52;2.75;;;1.58;;
1545;SDS011;766;51.502;9.752;2023-07-28T02:19:22;2.40;;;1.50;;
1545;SDS011;766;51.502;9.752;2023-07-28T02:21:51;2.75;;;1.67;;
1545;SDS011;766;51.502;9.752;2023-07-28T02:24:24;2.80;;;1.60;;
1545;SDS011;766;51.502;9.752;2023-07-28T02:26:53;3.70;;;1.95;;
1545;SDS011;766;51.502;9.752;2023-07-28T02:29:21;2.95;;;1.73;;
1545;SDS011;766;51.502;9.752;2023-07-28T02:31:50;2.72;;;1.80;;
1545;SDS011;766;51.502;9.752;2023-07-28T02:34:18;2.78;;;2.28;;
1545;SDS011;766;51.502;9.752;2023-07-28T02:36:48;6.78;;;2.63;;
1545;SDS011;766;51.502;9.752;2023-07-28T02:39:18;3.75;;;1.83;;
1545;SDS011;766;51.502;9.752;2023-07-28T02:41:49;4.15;;;1.90;;
1545;SDS011;766;51.502;9.752;2023-07-28T02:44:18;3.28;;;1.85;;
1545;SDS011;766;51.502;9.752;2023-07-28T02:46:46;3.20;;;2.05;;
1545;SDS011;766;51.502;9.752;2023-07-28T02:49:16;2.22;;;2.03;;
1545;SDS011;766;51.502;9.752;2023-07-28T02:51:45;2.60;;;2.40;;
1545;SDS011;766;51.502;9.752;2023-07-28T02:54:20;4.82;;;2.40;;
1545;SDS011;766;51.502;9.752;2023-07-28T02:56:50;3.00;;;2.70;;
1545;SDS011;766;51.502;9.752;2023-07-28T02:59:21;4.63;;;2.35;;
1545;SDS011;766;51.502;9.752;2023-07-28T03:01:54;3.92;;;3.03;;
1545;SDS011;766;51.502;9.752;2023-07-28T03:04:26;3.55;;;2.85;;
1545;SDS011;766;51.502;9.752;2023-07-28T03:06:55;3.60;;;3.15;;
1545;SDS011;766;51.502;9.752;2023-07-28T03:09:25;3.38;;;3.08;;
1545;SDS011;766;51.502;9.752;2023-07-28T03:11:54;4.93;;;3.83;;
1545;SDS011;766;51.502;9.752;2023-07-28T03:14:23;3.45;;;2.80;;
1545;SDS011;766;51.502;9.752;2023-07-28T03:17:16;4.13;;;3.17;;
1545;SDS011;766;51.502;9.752;2023-07-28T03:19:48;4.72;;;2.83;;
1545;SDS011;766;51.502;9.752;2023-07-28T03:22:19;3.15;;;2.70;;
1545;SDS011;766;51.502;9.752;2023-07-28T03:24:49;3.38;;;3.03;;
1545;SDS011;766;51.502;9.752;2023-07-28T03:27:18;3.17;;;2.88;;
1545;SDS011;766;51.502;9.752;2023-07-28T03:29:47;3.17;;;2.85;;
1545;SDS011;766;51.502;9.752;2023-07-28T03:32:16;4.10;;;2.88;;
1545;SDS011;766;51.502;9.752;2023-07-28T03:34:47;3.30;;;2.65;;
1545;SDS011;766;51.502;9.752;2023-07-28T03:37:16;3.20;;;2.90;;
1545;SDS011;766;51.502;9.752;2023-07-28T03:39:51;3.60;;;2.95;;
1545;SDS011;766;51.502;9.752;2023-07-28T03:42:20;4.78;;;3.67;;
1545;SDS011;766;51.502;9.752;2023-07-28T03:44:48;4.30;;;3.38;;
1545;SDS011;766;51.502;9.752;2023-07-28T03:47:17;3.30;;;3.00;;
1545;SDS011;766;51.502;9.752;2023-07-28T03:49:46;4.80;;;2.90;;
1545;SDS011;766;51.502;9.752;2023-07-28T03:52:15;3.58;;;2.78;;
1545;SDS011;766;51.502;9.752;2023-07-28T03:54:46;7.57;;;3.13;;
1545;SDS011;766;51.502;9.752;2023-07-28T03:57:18;2.97;;;2.67;;
1545;SDS011;766;51.502;9.752;2023-07-28T03:59:47;3.15;;;2.85;;
1545;SDS011;766;51.502;9.752;2023-07-28T04:02:16;4.97;;;2.35;;
1545;SDS011;766;51.502;9.752;2023-07-28T04:04:46;3.05;;;2.58;;
1545;SDS011;766;51.502;9.752;2023-07-28T04:07:19;3.65;;;2.65;;
1545;SDS011;766;51.502;9.752;2023-07-28T04:09:47;3.83;;;2.80;;
1545;SDS011;766;51.502;9.752;2023-07-28T04:12:21;3.15;;;2.63;;
1545;SDS011;766;51.502;9.752;2023-07-28T04:14:53;3.13;;;2.40;;
1545;SDS011;766;51.502;9.752;2023-07-28T04:17:23;3.25;;;2.83;;
1545;SDS011;766;51.502;9.752;2023-07-28T04:19:51;2.55;;;2.28;;
1545;SDS011;766;51.502;9.752;2023-07-28T04:22:20;2.40;;;2.20;;
1545;SDS011;766;51.502;9.752;2023-07-28T04:24:48;2.75;;;2.05;;
1545;SDS011;766;51.502;9.752;2023-07-28T04:27:16;2.33;;;1.88;;
1545;SDS011;766;51.502;9.752;2023-07-28T04:29:47;2.25;;;2.05;;
1545;SDS011;766;51.502;9.752;2023-07-28T04:32:15;3.22;;;1.90;;
1545;SDS011;766;51.502;9.752;2023-07-28T04:34:43;2.17;;;1.60;;
1545;SDS011;766;51.502;9.752;2023-07-28T04:37:12;2.85;;;1.70;;
1545;SDS011;766;51.502;9.752;2023-07-28T04:39:40;1.88;;;1.50;;
1545;SDS011;766;51.502;9.752;2023-07-28T04:42:09;2.40;;;1.70;;
1545;SDS011;766;51.502;9.752;2023-07-28T04:44:37;2.67;;;1.90;;
1545;SDS011;766;51.502;9.752;2023-07-28T04:47:08;2.20;;;1.92;;
1545;SDS011;766;51.502;9.752;2023-07-28T04:49:36;2.55;;;2.00;;
1545;SDS011;766;51.502;9.752;2023-07-28T04:52:05;2.10;;;1.90;;
1545;SDS011;766;51.502;9.752;2023-07-28T04:54:34;2.05;;;1.85;;
1545;SDS011;766;51.502;9.752;2023-07-28T04:57:05;4.22;;;2.00;;
1545;SDS011;766;51.502;9.752;2023-07-28T04:59:35;3.42;;;1.75;;
1545;SDS011;766;51.502;9.752;2023-07-28T05:02:05;1.65;;;1.55;;
1545;SDS011;766;51.502;9.752;2023-07-28T05:04:37;1.60;;;1.50;;
1545;SDS011;766;51.502;9.752;2023-07-28T05:07:06;2.00;;;1.80;;
1545;SDS011;766;51.502;9.752;2023-07-28T05:09:34;2.85;;;1.70;;
1545;SDS011;766;51.502;9.752;2023-07-28T05:12:04;2.67;;;1.70;;
1545;SDS011;766;51.502;9.752;2023-07-28T05:14:33;2.85;;;2.42;;
1545;SDS011;766;51.502;9.752;2023-07-28T05:17:01;3.55;;;2.40;;
1545;SDS011;766;51.502;9.752;2023-07-28T05:19:32;2.65;;;2.30;;
1545;SDS011;766;51.502;9.752;2023-07-28T05:22:02;3.25;;;2.40;;
1545;SDS011;766;51.502;9.752;2023-07-28T05:24:33;4.47;;;2.47;;
1545;SDS011;766;51.502;9.752;2023-07-28T05:27:01;3.92;;;2.20;;
1545;SDS011;766;51.502;9.752;2023-07-28T05:29:30;3.55;;;2.15;;
1545;SDS011;766;51.502;9.752;2023-07-28T05:31:58;2.35;;;2.10;;
1545;SDS011;766;51.502;9.752;2023-07-28T05:34:27;4.15;;;2.63;;
1545;SDS011;766;51.502;9.752;2023-07-28T05:36:57;3.17;;;2.58;;
1545;SDS011;766;51.502;9.752;2023-07-28T05:39:25;7.85;;;2.88;;
1545;SDS011;766;51.502;9.752;2023-07-28T05:41:53;5.43;;;2.70;;
1545;SDS011;766;51.502;9.752;2023-07-28T05:44:22;2.85;;;2.65;;
1545;SDS011;766;51.502;9.752;2023-07-28T05:46:51;4.38;;;2.65;;
1545;SDS011;766;51.502;9.752;2023-07-28T05:49:19;2.83;;;2.40;;
1545;SDS011;766;51.502;9.752;2023-07-28T05:51:47;4.00;;;2.20;;
1545;SDS011;766;51.502;9.752;2023-07-28T05:54:17;2.60;;;2.40;;
1545;SDS011;766;51.502;9.752;2023-07-28T05:56:45;2.35;;;1.90;;
1545;SDS011;766;51.502;9.752;2023-07-28T05:59:14;3.17;;;2.10;;
1545;SDS011;766;51.502;9.752;2023-07-28T06:01:42;2.60;;;1.90;;
1545;SDS011;766;51.502;9.752;2023-07-28T06:04:11;4.25;;;1.98;;
1545;SDS011;766;51.502;9.752;2023-07-28T06:06:40;2.35;;;2.15;;
1545;SDS011;766;51.502;9.752;2023-07-28T06:09:09;3.47;;;2.22;;
1545;SDS011;766;51.502;9.752;2023-07-28T06:11:39;2.63;;;1.90;;
1545;SDS011;766;51.502;9.752;2023-07-28T06:14:08;2.17;;;1.58;;
1545;SDS011;766;51.502;9.752;2023-07-28T06:16:38;3.30;;;2.15;;
1545;SDS011;766;51.502;9.752;2023-07-28T06:19:07;1.70;;;1.60;;
1545;SDS011;766;51.502;9.752;2023-07-28T06:21:35;2.33;;;2.00;;
1545;SDS011;766;51.502;9.752;2023-07-28T06:24:05;6.65;;;2.00;;
1545;SDS011;766;51.502;9.752;2023-07-28T06:26:36;1.52;;;1.42;;
1545;SDS011;766;51.502;9.752;2023-07-28T06:29:05;2.00;;;1.30;;
1545;SDS011;766;51.502;9.752;2023-07-28T06:31:34;1.60;;;1.27;;
1545;SDS011;766;51.502;9.752;2023-07-28T06:34:03;1.42;;;1.20;;
1545;SDS011;766;51.502;9.752;2023-07-28T06:36:31;2.58;;;1.40;;
1545;SDS011;766;51.502;9.752;2023-07-28T06:38:59;1.40;;;1.30;;
1545;SDS011;766;51.502;9.752;2023-07-28T06:41:28;1.92;;;1.60;;
1545;SDS011;766;51.502;9.752;2023-07-28T06:43:56;1.35;;;1.25;;
1545;SDS011;766;51.502;9.752;2023-07-28T06:46:26;3.03;;;1.58;;
1545;SDS011;766;51.502;9.752;2023-07-28T06:48:56;2.70;;;1.50;;
1545;SDS011;766;51.502;9.752;2023-07-28T06:51:26;2.95;;;1.50;;
1545;SDS011;766;51.502;9.752;2023-07-28T06:53:54;3.70;;;1.40;;
1545;SDS011;766;51.502;9.752;2023-07-28T06:56:23;2.40;;;1.58;;
1545;SDS011;766;51.502;9.752;2023-07-28T06:58:51;5.30;;;1.60;;
1545;SDS011;766;51.502;9.752;2023-07-28T07:01:41;2.05;;;1.42;;
1545;SDS011;766;51.502;9.752;2023-07-28T07:04:10;2.92;;;1.38;;
1545;SDS011;766;51.502;9.752;2023-07-28T07:06:38;1.85;;;1.42;;
1545;SDS011;766;51.502;9.752;2023-07-28T07:09:06;1.90;;;1.40;;
1545;SDS011;766;51.502;9.752;2023-07-28T07:11:35;3.83;;;1.63;;
1545;SDS011;766;51.502;9.752;2023-07-28T07:14:04;1.90;;;1.50;;
1545;SDS011;766;51.502;9.752;2023-07-28T07:16:32;3.63;;;1.80;;
1545;SDS011;766;51.502;9.752;2023-07-28T07:19:05;1.70;;;1.60;;
1545;SDS011;766;51.502;9.752;2023-07-28T07:21:35;5.55;;;1.85;;
1545;SDS011;766;51.502;9.752;2023-07-28T07:24:04;2.00;;;1.70;;
1545;SDS011;766;51.502;9.752;2023-07-28T07:26:33;3.05;;;1.92;;
1545;SDS011;766;51.502;9.752;2023-07-28T07:29:01;3.00;;;1.60;;
1545;SDS011;766;51.502;9.752;2023-07-28T07:31:30;2.90;;;1.60;;
1545;SDS011;766;51.502;9.752;2023-07-28T07:33:59;3.03;;;1.80;;
1545;SDS011;766;51.502;9.752;2023-07-28T07:36:29;2.33;;;1.48;;
1545;SDS011;766;51.502;9.752;2023-07-28T07:38:58;3.85;;;1.75;;
1545;SDS011;766;51.502;9.752;2023-07-28T07:41:26;1.75;;;1.65;;
1545;SDS011;766;51.502;9.752;2023-07-28T07:43:56;3.05;;;1.65;;
1545;SDS011;766;51.502;9.752;2023-07-28T07:46:24;4.32;;;1.48;;
1545;SDS011;766;51.502;9.752;2023-07-28T07:48:52;2.38;;;1.60;;
1545;SDS011;766;51.502;9.752;2023-07-28T07:51:20;2.40;;;1.50;;
1545;SDS011;766;51.502;9.752;2023-07-28T07:53:51;4.28;;;2.03;;
1545;SDS011;766;51.502;9.752;2023-07-28T07:56:20;2.13;;;1.75;;
1545;SDS011;766;51.502;9.752;2023-07-28T07:58:49;1.70;;;1.60;;
1545;SDS011;766;51.502;9.752;2023-07-28T08:01:17;2.17;;;1.67;;
1545;SDS011;766;51.502;9.752;2023-07-28T08:03:46;3.33;;;1.88;;
1545;SDS011;766;51.502;9.752;2023-07-28T08:06:15;3.03;;;1.90;;
1545;SDS011;766;51.502;9.752;2023-07-28T08:08:44;3.92;;;1.90;;
1545;SDS011;766;51.502;9.752;2023-07-28T08:11:14;5.78;;;1.50;;
1545;SDS011;766;51.502;9.752;2023-07-28T08:13:42;2.83;;;2.20;;
1545;SDS011;766;51.502;9.752;2023-07-28T08:16:11;2.08;;;1.55;;
1545;SDS011;766;51.502;9.752;2023-07-28T08:18:40;2.85;;;1.60;;
1545;SDS011;766;51.502;9.752;2023-07-28T08:21:08;4.05;;;1.65;;
1545;SDS011;766;51.502;9.752;2023-07-28T08:23:37;1.60;;;1.40;;
1545;SDS011;766;51.502;9.752;2023-07-28T08:26:05;1.50;;;1.30;;
1545;SDS011;766;51.502;9.752;2023-07-28T08:28:35;1.45;;;1.30;;
1545;SDS011;766;51.502;9.752;2023-07-28T08:31:03;2.75;;;1.40;;
1545;SDS011;766;51.502;9.752;2023-07-28T08:33:32;2.80;;;1.40;;
1545;SDS011;766;51.502;9.752;2023-07-28T08:36:00;2.97;;;1.05;;
1545;SDS011;766;51.502;9.752;2023-07-28T08:38:30;2.05;;;0.80;;
1545;SDS011;766;51.502;9.752;2023-07-28T08:40:59;1.45;;;0.80;;
1545;SDS011;766;51.502;9.752;2023-07-28T08:43:27;0.70;;;0.70;;
1545;SDS011;766;51.502;9.752;2023-07-28T08:45:57;1.40;;;1.08;;
1545;SDS011;766;51.502;9.752;2023-07-28T08:48:25;2.70;;;1.05;;
1545;SDS011;766;51.502;9.752;2023-07-28T08:50:54;1.27;;;0.90;;
1545;SDS011;766;51.502;9.752;2023-07-28T08:53:23;1.15;;;0.80;;
1545;SDS011;766;51.502;9.752;2023-07-28T08:55:51;1.65;;;0.98;;
1545;SDS011;766;51.502;9.752;2023-07-28T08:58:21;2.17;;;0.90;;
1545;SDS011;766;51.502;9.752;2023-07-28T09:00:51;3.35;;;0.70;;
1545;SDS011;766;51.502;9.752;2023-07-28T09:03:22;1.48;;;0.90;;
1545;SDS011;766;51.502;9.752;2023-07-28T09:05:58;3.88;;;1.25;;
1545;SDS011;766;51.502;9.752;2023-07-28T09:08:28;5.55;;;0.93;;
1545;SDS011;766;51.502;9.752;2023-07-28T09:11:02;5.15;;;0.93;;
1545;SDS011;766;51.502;9.752;2023-07-28T09:13:35;6.10;;;1.40;;
1545;SDS011;766;51.502;9.752;2023-07-28T09:16:15;1.13;;;1.02;;
1545;SDS011;766;51.502;9.752;2023-07-28T09:18:46;0.70;;;0.70;;
1545;SDS011;766;51.502;9.752;2023-07-28T09:21:18;1.45;;;0.77;;
1545;SDS011;766;51.502;9.752;2023-07-28T09:23:48;2.58;;;1.25;;
1545;SDS011;766;51.502;9.752;2023-07-28T09:26:16;0.98;;;0.80;;
1545;SDS011;766;51.502;9.752;2023-07-28T09:28:45;2.53;;;0.82;;
1545;SDS011;766;51.502;9.752;2023-07-28T09:31:14;5.38;;;0.98;;
1545;SDS011;766;51.502;9.752;2023-07-28T09:33:43;1.48;;;0.98;;
1545;SDS011;766;51.502;9.752;2023-07-28T09:36:15;1.40;;;0.90;;
1545;SDS011;766;51.502;9.752;2023-07-28T09:38:44;1.40;;;0.90;;
1545;SDS011;766;51.502;9.752;2023-07-28T09:41:14;3.83;;;0.88;;
1545;SDS011;766;51.502;9.752;2023-07-28T09:43:42;1.08;;;1.02;;
1545;SDS011;766;51.502;9.752;2023-07-28T09:46:11;2.58;;;1.00;;
1545;SDS011;766;51.502;9.752;2023-07-28T09:48:43;1.40;;;0.90;;
1545;SDS011;766;51.502;9.752;2023-07-28T09:51:16;2.25;;;0.90;;
1545;SDS011;766;51.502;9.752;2023-07-28T09:53:48;2.33;;;0.90;;
1545;SDS011;766;51.502;9.752;2023-07-28T09:56:19;4.13;;;1.20;;
1545;SDS011;766;51.502;9.752;2023-07-28T09:58:50;5.22;;;1.10;;
1545;SDS011;766;51.502;9.752;2023-07-28T10:01:19;1.10;;;0.90;;
1545;SDS011;766;51.502;9.752;2023-07-28T10:03:49;2.53;;;1.27;;
1545;SDS011;766;51.502;9.752;2023-07-28T10:06:20;0.80;;;0.80;;
1545;SDS011;766;51.502;9.752;2023-07-28T10:08:49;4.00;;;1.20;;
1545;SDS011;766;51.502;9.752;2023-07-28T10:11:19;4.32;;;0.90;;
1545;SDS011;766;51.502;9.752;2023-07-28T10:13:50;1.02;;;0.90;;
1545;SDS011;766;51.502;9.752;2023-07-28T10:16:19;1.85;;;1.15;;
1545;SDS011;766;51.502;9.752;2023-07-28T10:18:51;1.90;;;1.25;;
1545;SDS011;766;51.502;9.752;2023-07-28T10:21:26;2.83;;;1.13;;
1545;SDS011;766;51.502;9.752;2023-07-28T10:23:56;1.27;;;1.00;;
1545;SDS011;766;51.502;9.752;2023-07-28T10:26:31;1.85;;;1.10;;
1545;SDS011;766;51.502;9.752;2023-07-28T10:29:10;2.15;;;0.82;;
1545;SDS011;766;51.502;9.752;2023-07-28T10:31:50;1.88;;;1.17;;
1545;SDS011;766;51.502;9.752;2023-07-28T10:34:19;1.77;;;1.10;;
1545;SDS011;766;51.502;9.752;2023-07-28T10:36:57;1.38;;;1.08;;
1545;SDS011;766;51.502;9.752;2023-07-28T10:39:26;1.63;;;1.00;;
1545;SDS011;766;51.502;9.752;2023-07-28T10:42:04;2.20;;;1.00;;
1545;SDS011;766;51.502;9.752;2023-07-28T10:44:33;4.93;;;1.05;;
1545;SDS011;766;51.502;9.752;2023-07-28T10:47:01;1.90;;;1.00;;
1545;SDS011;766;51.502;9.752;2023-07-28T10:49:34;0.90;;;0.90;;
1545;SDS011;766;51.502;9.752;2023-07-28T10:52:04;1.65;;;1.13;;
1545;SDS011;766;51.502;9.752;2023-07-28T10:54:33;2.15;;;1.20;;
1545;SDS011;766;51.502;9.752;2023-07-28T10:57:03;1.63;;;1.40;;
1545;SDS011;766;51.502;9.752;2023-07-28T10:59:32;3.00;;;1.20;;
1545;SDS011;766;51.502;9.752;2023-07-28T11:02:00;3.80;;;1.55;;
1545;SDS011;766;51.502;9.752;2023-07-28T11:04:29;4.57;;;1.40;;
1545;SDS011;766;51.502;9.752;2023-07-28T11:06:57;2.28;;;1.50;;
1545;SDS011;766;51.502;9.752;2023-07-28T11:09:27;2.70;;;1.40;;
1545;SDS011;766;51.502;9.752;2023-07-28T11:11:56;4.07;;;1.40;;
1545;SDS011;766;51.502;9.752;2023-07-28T11:14:24;1.83;;;1.50;;
1545;SDS011;766;51.502;9.752;2023-07-28T11:16:53;3.65;;;1.20;;
1545;SDS011;766;51.502;9.752;2023-07-28T11:19:22;1.45;;;1.33;;
1545;SDS011;766;51.502;9.752;2023-07-28T11:21:56;1.15;;;1.00;;
1545;SDS011;766;51.502;9.752;2023-07-28T11:24:25;1.80;;;1.17;;
1545;SDS011;766;51.502;9.752;2023-07-28T11:26:56;1.60;;;1.50;;
1545;SDS011;766;51.502;9.752;2023-07-28T11:29:26;1.38;;;1.23;;
1545;SDS011;766;51.502;9.752;2023-07-28T11:31:56;1.30;;;1.20;;
1545;SDS011;766;51.502;9.752;2023-07-28T11:34:24;1.70;;;1.60;;
1545;SDS011;766;51.502;9.752;2023-07-28T11:36:52;2.03;;;1.83;;
1545;SDS011;766;51.502;9.752;2023-07-28T11:39:22;1.92;;;1.23;;
1545;SDS011;766;51.502;9.752;2023-07-28T11:41:51;1.48;;;1.10;;
1545;SDS011;766;51.502;9.752;2023-07-28T11:44:22;4.63;;;1.60;;
1545;SDS011;766;51.502;9.752;2023-07-28T11:46:51;2.95;;;1.20;;
1545;SDS011;766;51.502;9.752;2023-07-28T11:49:22;1.60;;;1.50;;
1545;SDS011;766;51.502;9.752;2023-07-28T11:51:51;1.50;;;1.40;;
1545;SDS011;766;51.502;9.752;2023-07-28T11:54:22;1.50;;;1.40;;
1545;SDS011;766;51.502;9.752;2023-07-28T11:56:53;1.58;;;1.20;;
1545;SDS011;766;51.502;9.752;2023-07-28T11:59:25;1.23;;;1.13;;
1545;SDS011;766;51.502;9.752;2023-07-28T12:01:54;1.63;;;1.30;;
1545;SDS011;766;51.502;9.752;2023-07-28T12:04:26;1.88;;;1.20;;
1545;SDS011;766;51.502;9.752;2023-07-28T12:07:02;1.98;;;1.30;;
1545;SDS011;766;51.502;9.752;2023-07-28T12:09:47;1.70;;;1.60;;
1545;SDS011;766;51.502;9.752;2023-07-28T12:12:29;1.83;;;1.65;;
1545;SDS011;766;51.502;9.752;2023-07-28T12:15:17;2.60;;;1.90;;
1545;SDS011;766;51.502;9.752;2023-07-28T12:18:00;1.67;;;1.58;;
1545;SDS011;766;51.502;9.752;2023-07-28T12:20:34;2.35;;;1.50;;
1545;SDS011;766;51.502;9.752;2023-07-28T12:23:05;3.25;;;1.30;;
1545;SDS011;766;51.502;9.752;2023-07-28T12:25:37;3.83;;;1.23;;
1545;SDS011;766;51.502;9.752;2023-07-28T12:28:07;1.35;;;1.20;;
1545;SDS011;766;51.502;9.752;2023-07-28T12:30:46;3.50;;;1.55;;
1545;SDS011;766;51.502;9.752;2023-07-28T12:33:18;1.40;;;1.30;;
1545;SDS011;766;51.502;9.752;2023-07-28T12:35:48;2.35;;;1.55;;
1545;SDS011;766;51.502;9.752;2023-07-28T12:38:18;1.58;;;1.42;;
1545;SDS011;766;51.502;9.752;2023-07-28T12:40:50;1.80;;;1.58;;
1545;SDS011;766;51.502;9.752;2023-07-28T12:43:21;1.95;;;1.70;;
1545;SDS011;766;51.502;9.752;2023-07-28T12:45:55;2.28;;;1.65;;
1545;SDS011;766;51.502;9.752;2023-07-28T12:48:26;2.33;;;2.13;;
1545;SDS011;766;51.502;9.752;2023-07-28T12:50:55;2.22;;;2.03;;
1545;SDS011;766;51.502;9.752;2023-07-28T12:53:26;1.85;;;1.60;;
1545;SDS011;766;51.502;9.752;2023-07-28T12:55:55;1.90;;;1.65;;
1545;SDS011;766;51.502;9.752;2023-07-28T12:58:27;2.30;;;1.67;;
1545;SDS011;766;51.502;9.752;2023-07-28T13:00:59;2.08;;;1.48;;
1545;SDS011;766;51.502;9.752;2023-07-28T13:03:30;1.55;;;1.45;;
1545;SDS011;766;51.502;9.752;2023-07-28T13:05:59;3.22;;;1.48;;
1545;SDS011;766;51.502;9.752;2023-07-28T13:08:27;1.95;;;1.52;;
1545;SDS011;766;51.502;9.752;2023-07-28T13:10:59;3.05;;;1.67;;
1545;SDS011;766;51.502;9.752;2023-07-28T13:13:30;3.20;;;1.25;;
1545;SDS011;766;51.502;9.752;2023-07-28T13:16:01;4.57;;;1.35;;
1545;SDS011;766;51.502;9.752;2023-07-28T13:18:29;2.13;;;2.00;;
1545;SDS011;766;51.502;9.752;2023-07-28T13:20:59;2.42;;;1.92;;
1545;SDS011;766;51.502;9.752;2023-07-28T13:23:31;1.35;;;1.25;;
1545;SDS011;766;51.502;9.752;2023-07-28T13:25:59;2.45;;;1.70;;
1545;SDS011;766;51.502;9.752;2023-07-28T13:28:31;4.93;;;1.85;;
1545;SDS011;766;51.502;9.752;2023-07-28T13:31:01;3.63;;;2.00;;
1545;SDS011;766;51.502;9.752;2023-07-28T13:33:31;4.28;;;1.60;;
1545;SDS011;766;51.502;9.752;2023-07-28T13:36:00;2.03;;;1.70;;
1545;SDS011;766;51.502;9.752;2023-07-28T13:38:30;1.98;;;1.70;;
1545;SDS011;766;51.502;9.752;2023-07-28T13:40:59;2.13;;;1.95;;
1545;SDS011;766;51.502;9.752;2023-07-28T13:43:27;2.45;;;1.90;;
1545;SDS011;766;51.502;9.752;2023-07-28T13:45:56;2.00;;;1.45;;
1545;SDS011;766;51.502;9.752;2023-07-28T13:48:26;2.40;;;1.65;;
1545;SDS011;766;51.502;9.752;2023-07-28T13:50:54;1.98;;;1.80;;
1545;SDS011;766;51.502;9.752;2023-07-28T13:53:22;2.92;;;1.73;;
1545;SDS011;766;51.502;9.752;2023-07-28T13:55:54;2.45;;;2.15;;
1545;SDS011;766;51.502;9.752;2023-07-28T13:58:24;2.72;;;1.95;;
1545;SDS011;766;51.502;9.752;2023-07-28T14:00:52;2.90;;;2.17;;
1545;SDS011;766;51.502;9.752;2023-07-28T14:03:20;4.65;;;2.22;;
1545;SDS011;766;51.502;9.752;2023-07-28T14:05:50;2.35;;;2.15;;
1545;SDS011;766;51.502;9.752;2023-07-28T14:08:19;2.22;;;1.90;;
1545;SDS011;766;51.502;9.752;2023-07-28T14:10:48;2.75;;;2.03;;
1545;SDS011;766;51.502;9.752;2023-07-28T14:13:16;2.15;;;1.95;;
1545;SDS011;766;51.502;9.752;2023-07-28T14:15:44;2.45;;;2.13;;
1545;SDS011;766;51.502;9.752;2023-07-28T14:18:13;3.42;;;2.03;;
1545;SDS011;766;51.502;9.752;2023-07-28T14:20:41;3.83;;;2.15;;
1545;SDS011;766;51.502;9.752;2023-07-28T14:23:24;3.88;;;1.90;;
1545;SDS011;766;51.502;9.752;2023-07-28T14:25:53;1.73;;;1.63;;
1545;SDS011;766;51.502;9.752;2023-07-28T14:28:22;4.93;;;2.30;;
1545;SDS011;766;51.502;9.752;2023-07-28T14:30:51;4.60;;;2.33;;
1545;SDS011;766;51.502;9.752;2023-07-28T14:33:19;7.57;;;2.08;;
1545;SDS011;766;51.502;9.752;2023-07-28T14:35:48;1.98;;;1.88;;
1545;SDS011;766;51.502;9.752;2023-07-28T14:38:17;2.05;;;1.60;;
1545;SDS011;766;51.502;9.752;2023-07-28T14:40:47;4.07;;;1.95;;
1545;SDS011;766;51.502;9.752;2023-07-28T14:43:19;3.30;;;2.22;;
1545;SDS011;766;51.502;9.752;2023-07-28T14:45:49;3.10;;;2.00;;
1545;SDS011;766;51.502;9.752;2023-07-28T14:48:18;1.80;;;1.70;;
1545;SDS011;766;51.502;9.752;2023-07-28T14:50:47;2.95;;;1.92;;
1545;SDS011;766;51.502;9.752;2023-07-28T14:53:27;3.45;;;1.70;;
1545;SDS011;766;51.502;9.752;2023-07-28T14:55:59;1.95;;;1.85;;
1545;SDS011;766;51.502;9.752;2023-07-28T14:58:28;2.83;;;2.08;;
1545;SDS011;766;51.502;9.752;2023-07-28T15:00:57;2.10;;;1.90;;
1545;SDS011;766;51.502;9.752;2023-07-28T15:03:26;2.20;;;1.90;;
1545;SDS011;766;51.502;9.752;2023-07-28T15:05:58;2.83;;;2.30;;
1545;SDS011;766;51.502;9.752;2023-07-28T15:08:27;2.28;;;2.08;;
1545;SDS011;766;51.502;9.752;2023-07-28T15:10:56;3.20;;;1.90;;
1545;SDS011;766;51.502;9.752;2023-07-28T15:13:26;3.00;;;1.80;;
1545;SDS011;766;51.502;9.752;2023-07-28T15:15:54;2.90;;;1.92;;
1545;SDS011;766;51.502;9.752;2023-07-28T15:18:23;1.98;;;1.73;;
1545;SDS011;766;51.502;9.752;2023-07-28T15:20:51;2.20;;;2.00;;
1545;SDS011;766;51.502;9.752;2023-07-28T15:23:22;2.30;;;2.10;;
1545;SDS011;766;51.502;9.752;2023-07-28T15:25:51;3.22;;;2.10;;
1545;SDS011;766;51.502;9.752;2023-07-28T15:28:23;2.90;;;2.40;;
1545;SDS011;766;51.502;9.752;2023-07-28T15:30:53;1.77;;;1.67;;
1545;SDS011;766;51.502;9.752;2023-07-28T15:33:22;4.57;;;1.52;;
1545;SDS011;766;51.502;9.752;2023-07-28T15:35:52;1.85;;;1.75;;
1545;SDS011;766;51.502;9.752;2023-07-28T15:38:20;2.38;;;2.00;;
1545;SDS011;766;51.502;9.752;2023-07-28T15:40:48;1.80;;;1.70;;
1545;SDS011;766;51.502;9.752;2023-07-28T15:43:17;1.58;;;1.48;;
1545;SDS011;766;51.502;9.752;2023-07-28T15:45:46;3.95;;;2.03;;
1545;SDS011;766;51.502;9.752;2023-07-28T15:48:18;5.40;;;1.50;;